sensor_id;sensor_type;location;lat;lon;timestamp;P1;durP1;ratioP1;P2;durP2;ratioP2
14316;SDS011;7242;50.858;6.586;2022-11-14T00:00:04;6.47;;;5.50;;
14316;SDS011;7242;50.858;6.586;2022-11-14T00:03:23;6.00;;;5.40;;
14316;SDS011;7242;50.858;6.586;2022-11-14T00:06:43;5.80;;;5.20;;
14316;SDS011;7242;50.858;6.586;2022-11-14T00:10:02;6.10;;;5.50;;
14316;SDS011;7242;50.858;6.586;2022-11-14T00:13:22;7.27;;;5.40;;
14316;SDS011;7242;50.858;6.586;2022-11-14T00:16:42;6.33;;;5.00;;
14316;SDS011;7242;50.858;6.586;2022-11-14T00:20:02;5.80;;;5.20;;
14316;SDS011;7242;50.858;6.586;2022-11-14T00:23:22;7.13;;;5.60;;
14316;SDS011;7242;50.858;6.586;2022-11-14T00:26:42;6.17;;;5.33;;
14316;SDS011;7242;50.858;6.586;2022-11-14T00:30:00;6.53;;;5.27;;
14316;SDS011;7242;50.858;6.586;2022-11-14T00:33:20;6.37;;;5.47;;
14316;SDS011;7242;50.858;6.586;2022-11-14T00:40:44;6.47;;;5.47;;
14316;SDS011;7242;50.858;6.586;2022-11-14T00:44:04;5.90;;;5.30;;
14316;SDS011;7242;50.858;6.586;2022-11-14T00:47:23;5.30;;;4.77;;
14316;SDS011;7242;50.858;6.586;2022-11-14T00:50:43;5.87;;;5.17;;
14316;SDS011;7242;50.858;6.586;2022-11-14T00:54:06;5.67;;;5.07;;
14316;SDS011;7242;50.858;6.586;2022-11-14T00:57:25;6.07;;;5.00;;
14316;SDS011;7242;50.858;6.586;2022-11-14T01:00:45;5.10;;;4.60;;
14316;SDS011;7242;50.858;6.586;2022-11-14T01:04:05;5.40;;;4.90;;
14316;SDS011;7242;50.858;6.586;2022-11-14T01:07:25;5.20;;;4.70;;
14316;SDS011;7242;50.858;6.586;2022-11-14T01:10:46;5.43;;;4.93;;
14316;SDS011;7242;50.858;6.586;2022-11-14T01:14:06;5.67;;;5.07;;
14316;SDS011;7242;50.858;6.586;2022-11-14T01:17:25;6.73;;;4.83;;
14316;SDS011;7242;50.858;6.586;2022-11-14T01:20:46;5.27;;;4.77;;
14316;SDS011;7242;50.858;6.586;2022-11-14T01:28:12;5.20;;;4.63;;
14316;SDS011;7242;50.858;6.586;2022-11-14T01:31:33;6.37;;;5.10;;
14316;SDS011;7242;50.858;6.586;2022-11-14T01:34:52;5.00;;;4.50;;
14316;SDS011;7242;50.858;6.586;2022-11-14T01:38:12;6.03;;;4.70;;
14316;SDS011;7242;50.858;6.586;2022-11-14T01:41:32;6.03;;;4.40;;
14316;SDS011;7242;50.858;6.586;2022-11-14T01:44:52;5.23;;;4.73;;
14316;SDS011;7242;50.858;6.586;2022-11-14T01:52:03;5.13;;;4.47;;
14316;SDS011;7242;50.858;6.586;2022-11-14T01:55:23;4.53;;;4.10;;
14316;SDS011;7242;50.858;6.586;2022-11-14T02:02:49;5.60;;;4.07;;
14316;SDS011;7242;50.858;6.586;2022-11-14T02:06:09;6.40;;;4.43;;
14316;SDS011;7242;50.858;6.586;2022-11-14T02:09:31;5.97;;;4.50;;
14316;SDS011;7242;50.858;6.586;2022-11-14T02:12:52;5.43;;;4.50;;
14316;SDS011;7242;50.858;6.586;2022-11-14T02:16:12;4.93;;;4.40;;
14316;SDS011;7242;50.858;6.586;2022-11-14T02:19:42;5.00;;;4.50;;
14316;SDS011;7242;50.858;6.586;2022-11-14T02:23:02;5.07;;;4.57;;
14316;SDS011;7242;50.858;6.586;2022-11-14T02:26:22;5.73;;;4.60;;
14316;SDS011;7242;50.858;6.586;2022-11-14T02:29:41;4.67;;;4.03;;
14316;SDS011;7242;50.858;6.586;2022-11-14T02:33:01;4.77;;;4.27;;
14316;SDS011;7242;50.858;6.586;2022-11-14T02:36:20;5.93;;;4.30;;
14316;SDS011;7242;50.858;6.586;2022-11-14T02:39:40;5.30;;;4.30;;
14316;SDS011;7242;50.858;6.586;2022-11-14T02:43:00;4.70;;;4.20;;
14316;SDS011;7242;50.858;6.586;2022-11-14T02:46:20;5.53;;;4.20;;
14316;SDS011;7242;50.858;6.586;2022-11-14T02:49:39;4.80;;;4.33;;
14316;SDS011;7242;50.858;6.586;2022-11-14T02:52:59;6.20;;;4.80;;
14316;SDS011;7242;50.858;6.586;2022-11-14T02:56:19;6.57;;;4.40;;
14316;SDS011;7242;50.858;6.586;2022-11-14T02:59:38;4.97;;;4.47;;
14316;SDS011;7242;50.858;6.586;2022-11-14T03:02:57;4.47;;;4.03;;
14316;SDS011;7242;50.858;6.586;2022-11-14T03:06:16;5.43;;;4.57;;
14316;SDS011;7242;50.858;6.586;2022-11-14T03:09:36;4.43;;;4.03;;
14316;SDS011;7242;50.858;6.586;2022-11-14T03:12:56;5.87;;;4.90;;
14316;SDS011;7242;50.858;6.586;2022-11-14T03:16:16;5.47;;;4.63;;
14316;SDS011;7242;50.858;6.586;2022-11-14T03:19:41;5.13;;;4.30;;
14316;SDS011;7242;50.858;6.586;2022-11-14T03:23:01;4.40;;;4.00;;
14316;SDS011;7242;50.858;6.586;2022-11-14T03:26:21;6.77;;;5.00;;
14316;SDS011;7242;50.858;6.586;2022-11-14T03:29:41;5.20;;;4.67;;
14316;SDS011;7242;50.858;6.586;2022-11-14T03:33:00;5.43;;;4.67;;
14316;SDS011;7242;50.858;6.586;2022-11-14T03:36:20;4.83;;;4.23;;
14316;SDS011;7242;50.858;6.586;2022-11-14T03:39:39;4.70;;;4.20;;
14316;SDS011;7242;50.858;6.586;2022-11-14T03:42:59;6.03;;;4.53;;
14316;SDS011;7242;50.858;6.586;2022-11-14T03:46:19;5.40;;;4.73;;
14316;SDS011;7242;50.858;6.586;2022-11-14T03:49:38;5.80;;;4.70;;
14316;SDS011;7242;50.858;6.586;2022-11-14T03:52:58;5.33;;;4.53;;
14316;SDS011;7242;50.858;6.586;2022-11-14T03:56:18;5.13;;;4.63;;
14316;SDS011;7242;50.858;6.586;2022-11-14T03:59:38;4.50;;;4.10;;
14316;SDS011;7242;50.858;6.586;2022-11-14T04:02:58;5.33;;;4.60;;
14316;SDS011;7242;50.858;6.586;2022-11-14T04:06:18;5.23;;;4.73;;
14316;SDS011;7242;50.858;6.586;2022-11-14T04:09:37;5.10;;;4.60;;
14316;SDS011;7242;50.858;6.586;2022-11-14T04:12:57;5.10;;;4.60;;
14316;SDS011;7242;50.858;6.586;2022-11-14T04:16:17;5.47;;;4.90;;
14316;SDS011;7242;50.858;6.586;2022-11-14T04:19:36;5.30;;;4.77;;
14316;SDS011;7242;50.858;6.586;2022-11-14T04:22:55;5.67;;;5.00;;
14316;SDS011;7242;50.858;6.586;2022-11-14T04:26:15;7.53;;;4.90;;
14316;SDS011;7242;50.858;6.586;2022-11-14T04:29:35;5.73;;;4.93;;
14316;SDS011;7242;50.858;6.586;2022-11-14T04:32:54;6.07;;;5.13;;
14316;SDS011;7242;50.858;6.586;2022-11-14T04:36:14;7.23;;;5.40;;
14316;SDS011;7242;50.858;6.586;2022-11-14T04:39:34;7.37;;;5.53;;
14316;SDS011;7242;50.858;6.586;2022-11-14T04:42:53;6.97;;;5.40;;
14316;SDS011;7242;50.858;6.586;2022-11-14T04:46:13;6.47;;;5.20;;
14316;SDS011;7242;50.858;6.586;2022-11-14T04:49:32;6.73;;;5.23;;
14316;SDS011;7242;50.858;6.586;2022-11-14T04:52:52;6.13;;;5.30;;
14316;SDS011;7242;50.858;6.586;2022-11-14T04:56:11;6.37;;;5.33;;
14316;SDS011;7242;50.858;6.586;2022-11-14T04:59:31;5.90;;;5.30;;
14316;SDS011;7242;50.858;6.586;2022-11-14T05:02:51;6.80;;;5.70;;
14316;SDS011;7242;50.858;6.586;2022-11-14T05:06:10;7.50;;;5.50;;
14316;SDS011;7242;50.858;6.586;2022-11-14T05:09:29;7.93;;;5.90;;
14316;SDS011;7242;50.858;6.586;2022-11-14T05:12:51;6.53;;;5.77;;
14316;SDS011;7242;50.858;6.586;2022-11-14T05:16:12;6.73;;;5.97;;
14316;SDS011;7242;50.858;6.586;2022-11-14T05:19:32;6.30;;;5.57;;
14316;SDS011;7242;50.858;6.586;2022-11-14T05:22:52;7.53;;;5.97;;
14316;SDS011;7242;50.858;6.586;2022-11-14T05:30:17;8.57;;;6.80;;
14316;SDS011;7242;50.858;6.586;2022-11-14T05:33:37;7.33;;;6.30;;
14316;SDS011;7242;50.858;6.586;2022-11-14T05:36:56;7.73;;;6.50;;
14316;SDS011;7242;50.858;6.586;2022-11-14T05:40:16;7.43;;;6.73;;
14316;SDS011;7242;50.858;6.586;2022-11-14T05:43:37;7.47;;;6.67;;
14316;SDS011;7242;50.858;6.586;2022-11-14T05:46:57;8.93;;;6.77;;
14316;SDS011;7242;50.858;6.586;2022-11-14T05:50:16;7.70;;;6.70;;
14316;SDS011;7242;50.858;6.586;2022-11-14T05:53:36;7.53;;;6.83;;
14316;SDS011;7242;50.858;6.586;2022-11-14T05:56:56;8.13;;;7.17;;
14316;SDS011;7242;50.858;6.586;2022-11-14T06:00:16;9.17;;;7.37;;
14316;SDS011;7242;50.858;6.586;2022-11-14T06:03:37;7.40;;;6.60;;
14316;SDS011;7242;50.858;6.586;2022-11-14T06:06:56;9.53;;;8.10;;
14316;SDS011;7242;50.858;6.586;2022-11-14T06:10:16;8.83;;;6.97;;
14316;SDS011;7242;50.858;6.586;2022-11-14T06:13:36;9.27;;;7.10;;
14316;SDS011;7242;50.858;6.586;2022-11-14T06:16:55;10.17;;;7.33;;
14316;SDS011;7242;50.858;6.586;2022-11-14T06:20:15;12.27;;;8.20;;
14316;SDS011;7242;50.858;6.586;2022-11-14T06:23:35;8.77;;;7.80;;
14316;SDS011;7242;50.858;6.586;2022-11-14T06:26:54;9.87;;;8.63;;
14316;SDS011;7242;50.858;6.586;2022-11-14T06:30:14;9.50;;;8.33;;
14316;SDS011;7242;50.858;6.586;2022-11-14T06:33:34;9.43;;;8.43;;
14316;SDS011;7242;50.858;6.586;2022-11-14T06:36:54;11.47;;;9.53;;
14316;SDS011;7242;50.858;6.586;2022-11-14T06:40:14;12.70;;;10.80;;
14316;SDS011;7242;50.858;6.586;2022-11-14T06:43:41;14.53;;;12.27;;
14316;SDS011;7242;50.858;6.586;2022-11-14T06:47:00;16.17;;;12.83;;
14316;SDS011;7242;50.858;6.586;2022-11-14T06:50:20;17.43;;;13.43;;
14316;SDS011;7242;50.858;6.586;2022-11-14T06:53:40;18.53;;;14.07;;
14316;SDS011;7242;50.858;6.586;2022-11-14T06:57:00;20.93;;;16.03;;
14316;SDS011;7242;50.858;6.586;2022-11-14T07:00:20;19.43;;;16.10;;
14316;SDS011;7242;50.858;6.586;2022-11-14T07:03:40;22.97;;;17.17;;
14316;SDS011;7242;50.858;6.586;2022-11-14T07:07:01;24.57;;;18.43;;
14316;SDS011;7242;50.858;6.586;2022-11-14T07:10:20;22.97;;;18.10;;
14316;SDS011;7242;50.858;6.586;2022-11-14T07:13:40;22.97;;;18.60;;
14316;SDS011;7242;50.858;6.586;2022-11-14T07:17:00;23.00;;;18.50;;
14316;SDS011;7242;50.858;6.586;2022-11-14T07:20:20;23.03;;;18.63;;
14316;SDS011;7242;50.858;6.586;2022-11-14T07:23:40;23.70;;;18.77;;
14316;SDS011;7242;50.858;6.586;2022-11-14T07:26:59;22.93;;;18.47;;
14316;SDS011;7242;50.858;6.586;2022-11-14T07:30:19;26.07;;;18.77;;
14316;SDS011;7242;50.858;6.586;2022-11-14T07:33:39;24.30;;;18.27;;
14316;SDS011;7242;50.858;6.586;2022-11-14T07:36:59;23.10;;;17.80;;
14316;SDS011;7242;50.858;6.586;2022-11-14T07:40:19;23.40;;;17.87;;
14316;SDS011;7242;50.858;6.586;2022-11-14T07:43:39;22.40;;;17.97;;
14316;SDS011;7242;50.858;6.586;2022-11-14T07:46:59;21.23;;;17.30;;
14316;SDS011;7242;50.858;6.586;2022-11-14T07:50:18;21.50;;;17.73;;
14316;SDS011;7242;50.858;6.586;2022-11-14T07:53:37;19.80;;;16.67;;
14316;SDS011;7242;50.858;6.586;2022-11-14T07:56:57;19.37;;;16.33;;
14316;SDS011;7242;50.858;6.586;2022-11-14T08:00:16;21.87;;;16.90;;
14316;SDS011;7242;50.858;6.586;2022-11-14T08:03:36;24.27;;;17.53;;
14316;SDS011;7242;50.858;6.586;2022-11-14T08:06:56;25.33;;;18.53;;
14316;SDS011;7242;50.858;6.586;2022-11-14T08:10:15;20.83;;;17.13;;
14316;SDS011;7242;50.858;6.586;2022-11-14T08:13:36;22.47;;;17.00;;
14316;SDS011;7242;50.858;6.586;2022-11-14T08:16:55;22.07;;;17.53;;
14316;SDS011;7242;50.858;6.586;2022-11-14T08:20:15;24.53;;;18.83;;
14316;SDS011;7242;50.858;6.586;2022-11-14T08:23:35;24.13;;;19.10;;
14316;SDS011;7242;50.858;6.586;2022-11-14T08:26:54;26.23;;;20.20;;
14316;SDS011;7242;50.858;6.586;2022-11-14T08:30:14;28.33;;;19.90;;
14316;SDS011;7242;50.858;6.586;2022-11-14T08:33:33;28.30;;;21.40;;
14316;SDS011;7242;50.858;6.586;2022-11-14T08:36:53;25.53;;;20.00;;
14316;SDS011;7242;50.858;6.586;2022-11-14T08:40:14;29.83;;;21.50;;
14316;SDS011;7242;50.858;6.586;2022-11-14T08:43:34;25.93;;;20.67;;
14316;SDS011;7242;50.858;6.586;2022-11-14T08:46:53;25.47;;;19.93;;
14316;SDS011;7242;50.858;6.586;2022-11-14T08:50:12;24.27;;;19.20;;
14316;SDS011;7242;50.858;6.586;2022-11-14T08:53:32;24.93;;;19.77;;
14316;SDS011;7242;50.858;6.586;2022-11-14T08:56:52;26.07;;;20.07;;
14316;SDS011;7242;50.858;6.586;2022-11-14T09:00:12;22.73;;;19.07;;
14316;SDS011;7242;50.858;6.586;2022-11-14T09:03:32;23.90;;;18.67;;
14316;SDS011;7242;50.858;6.586;2022-11-14T09:06:52;23.87;;;18.37;;
14316;SDS011;7242;50.858;6.586;2022-11-14T09:10:12;23.00;;;18.57;;
14316;SDS011;7242;50.858;6.586;2022-11-14T09:13:34;23.83;;;18.83;;
14316;SDS011;7242;50.858;6.586;2022-11-14T09:16:54;23.37;;;17.77;;
14316;SDS011;7242;50.858;6.586;2022-11-14T09:20:14;22.57;;;17.60;;
14316;SDS011;7242;50.858;6.586;2022-11-14T09:23:34;24.43;;;18.70;;
14316;SDS011;7242;50.858;6.586;2022-11-14T09:26:53;20.80;;;16.87;;
14316;SDS011;7242;50.858;6.586;2022-11-14T09:30:13;22.33;;;17.43;;
14316;SDS011;7242;50.858;6.586;2022-11-14T09:33:33;23.20;;;16.60;;
14316;SDS011;7242;50.858;6.586;2022-11-14T09:36:53;20.03;;;15.83;;
14316;SDS011;7242;50.858;6.586;2022-11-14T09:40:12;18.80;;;14.77;;
14316;SDS011;7242;50.858;6.586;2022-11-14T09:46:55;18.00;;;13.90;;
14316;SDS011;7242;50.858;6.586;2022-11-14T09:50:16;18.13;;;13.23;;
14316;SDS011;7242;50.858;6.586;2022-11-14T09:53:49;20.80;;;12.93;;
14316;SDS011;7242;50.858;6.586;2022-11-14T09:57:14;16.20;;;13.27;;
14316;SDS011;7242;50.858;6.586;2022-11-14T10:04:23;14.80;;;11.63;;
14316;SDS011;7242;50.858;6.586;2022-11-14T10:08:00;15.93;;;12.10;;
14316;SDS011;7242;50.858;6.586;2022-11-14T10:15:28;13.37;;;10.17;;
14316;SDS011;7242;50.858;6.586;2022-11-14T10:22:11;13.13;;;9.40;;
14316;SDS011;7242;50.858;6.586;2022-11-14T10:25:47;12.27;;;9.37;;
14316;SDS011;7242;50.858;6.586;2022-11-14T10:36:28;10.00;;;7.93;;
14316;SDS011;7242;50.858;6.586;2022-11-14T10:39:53;18.47;;;11.93;;
14316;SDS011;7242;50.858;6.586;2022-11-14T10:46:46;15.43;;;11.60;;
14316;SDS011;7242;50.858;6.586;2022-11-14T10:50:16;14.23;;;10.93;;
14316;SDS011;7242;50.858;6.586;2022-11-14T10:57:14;13.53;;;10.23;;
14316;SDS011;7242;50.858;6.586;2022-11-14T11:00:34;12.63;;;9.60;;
14316;SDS011;7242;50.858;6.586;2022-11-14T11:03:54;11.50;;;9.50;;
14316;SDS011;7242;50.858;6.586;2022-11-14T11:07:24;11.43;;;9.03;;
14316;SDS011;7242;50.858;6.586;2022-11-14T11:11:03;10.97;;;8.90;;
14316;SDS011;7242;50.858;6.586;2022-11-14T11:14:43;11.43;;;8.77;;
14316;SDS011;7242;50.858;6.586;2022-11-14T11:21:22;11.43;;;8.70;;
14316;SDS011;7242;50.858;6.586;2022-11-14T11:24:42;9.73;;;8.20;;
14316;SDS011;7242;50.858;6.586;2022-11-14T11:28:06;10.83;;;8.47;;
14316;SDS011;7242;50.858;6.586;2022-11-14T11:31:25;9.47;;;7.00;;
14316;SDS011;7242;50.858;6.586;2022-11-14T11:34:45;9.77;;;7.50;;
14316;SDS011;7242;50.858;6.586;2022-11-14T11:38:06;9.47;;;8.10;;
14316;SDS011;7242;50.858;6.586;2022-11-14T11:41:30;11.10;;;7.97;;
14316;SDS011;7242;50.858;6.586;2022-11-14T11:44:54;9.63;;;7.73;;
14316;SDS011;7242;50.858;6.586;2022-11-14T11:48:22;9.30;;;7.80;;
14316;SDS011;7242;50.858;6.586;2022-11-14T11:51:46;13.47;;;9.37;;
14316;SDS011;7242;50.858;6.586;2022-11-14T11:55:16;14.13;;;9.60;;
14316;SDS011;7242;50.858;6.586;2022-11-14T11:58:43;14.00;;;9.77;;
14316;SDS011;7242;50.858;6.586;2022-11-14T12:02:15;13.67;;;10.67;;
14316;SDS011;7242;50.858;6.586;2022-11-14T12:09:18;19.43;;;10.60;;
14316;SDS011;7242;50.858;6.586;2022-11-14T12:26:39;16.97;;;12.70;;
14316;SDS011;7242;50.858;6.586;2022-11-14T12:30:07;14.87;;;12.17;;
14316;SDS011;7242;50.858;6.586;2022-11-14T12:33:34;16.80;;;12.33;;
14316;SDS011;7242;50.858;6.586;2022-11-14T12:36:55;17.03;;;11.80;;
14316;SDS011;7242;50.858;6.586;2022-11-14T12:40:34;20.83;;;13.37;;
14316;SDS011;7242;50.858;6.586;2022-11-14T12:44:17;19.13;;;13.40;;
14316;SDS011;7242;50.858;6.586;2022-11-14T12:47:37;18.63;;;14.00;;
14316;SDS011;7242;50.858;6.586;2022-11-14T12:54:55;18.60;;;13.80;;
14316;SDS011;7242;50.858;6.586;2022-11-14T13:05:16;18.23;;;13.27;;
14316;SDS011;7242;50.858;6.586;2022-11-14T13:16:23;21.00;;;14.87;;
14316;SDS011;7242;50.858;6.586;2022-11-14T13:20:21;20.57;;;14.27;;
14316;SDS011;7242;50.858;6.586;2022-11-14T13:24:02;17.93;;;13.90;;
14316;SDS011;7242;50.858;6.586;2022-11-14T13:27:32;19.03;;;14.00;;
14316;SDS011;7242;50.858;6.586;2022-11-14T13:52:07;18.57;;;14.60;;
14316;SDS011;7242;50.858;6.586;2022-11-14T14:06:10;22.43;;;15.37;;
14316;SDS011;7242;50.858;6.586;2022-11-14T14:19:50;19.43;;;15.20;;
14316;SDS011;7242;50.858;6.586;2022-11-14T14:23:33;19.73;;;15.30;;
14316;SDS011;7242;50.858;6.586;2022-11-14T14:30:18;20.27;;;15.07;;
14316;SDS011;7242;50.858;6.586;2022-11-14T14:33:41;20.57;;;15.20;;
14316;SDS011;7242;50.858;6.586;2022-11-14T14:37:02;19.27;;;14.43;;
14316;SDS011;7242;50.858;6.586;2022-11-14T14:40:25;20.00;;;14.90;;
14316;SDS011;7242;50.858;6.586;2022-11-14T14:43:49;18.50;;;14.20;;
14316;SDS011;7242;50.858;6.586;2022-11-14T14:47:16;19.67;;;14.63;;
14316;SDS011;7242;50.858;6.586;2022-11-14T14:50:37;18.43;;;14.43;;
14316;SDS011;7242;50.858;6.586;2022-11-14T14:53:59;18.83;;;14.67;;
14316;SDS011;7242;50.858;6.586;2022-11-14T14:57:19;20.03;;;15.20;;
14316;SDS011;7242;50.858;6.586;2022-11-14T15:00:38;17.80;;;14.03;;
14316;SDS011;7242;50.858;6.586;2022-11-14T15:04:05;17.87;;;14.77;;
14316;SDS011;7242;50.858;6.586;2022-11-14T15:07:25;19.70;;;15.00;;
14316;SDS011;7242;50.858;6.586;2022-11-14T15:10:47;20.07;;;14.47;;
14316;SDS011;7242;50.858;6.586;2022-11-14T15:14:09;20.87;;;14.43;;
14316;SDS011;7242;50.858;6.586;2022-11-14T15:17:30;18.17;;;15.33;;
14316;SDS011;7242;50.858;6.586;2022-11-14T15:21:07;18.83;;;15.70;;
14316;SDS011;7242;50.858;6.586;2022-11-14T15:24:29;22.47;;;16.40;;
14316;SDS011;7242;50.858;6.586;2022-11-14T15:27:50;20.57;;;15.73;;
14316;SDS011;7242;50.858;6.586;2022-11-14T15:31:16;19.23;;;15.20;;
14316;SDS011;7242;50.858;6.586;2022-11-14T15:34:37;18.90;;;15.17;;
14316;SDS011;7242;50.858;6.586;2022-11-14T15:41:24;19.83;;;15.83;;
14316;SDS011;7242;50.858;6.586;2022-11-14T15:44:47;18.17;;;14.63;;
14316;SDS011;7242;50.858;6.586;2022-11-14T15:48:10;19.27;;;15.93;;
14316;SDS011;7242;50.858;6.586;2022-11-14T15:51:41;19.50;;;16.30;;
14316;SDS011;7242;50.858;6.586;2022-11-14T15:55:16;19.80;;;15.80;;
14316;SDS011;7242;50.858;6.586;2022-11-14T15:58:36;20.53;;;16.30;;
14316;SDS011;7242;50.858;6.586;2022-11-14T16:02:00;23.07;;;17.67;;
14316;SDS011;7242;50.858;6.586;2022-11-14T16:05:23;21.50;;;17.10;;
14316;SDS011;7242;50.858;6.586;2022-11-14T16:08:43;21.17;;;16.40;;
14316;SDS011;7242;50.858;6.586;2022-11-14T16:12:03;23.13;;;17.03;;
14316;SDS011;7242;50.858;6.586;2022-11-14T16:15:23;22.27;;;17.23;;
14316;SDS011;7242;50.858;6.586;2022-11-14T16:18:42;22.60;;;17.33;;
14316;SDS011;7242;50.858;6.586;2022-11-14T16:22:02;20.17;;;16.87;;
14316;SDS011;7242;50.858;6.586;2022-11-14T16:25:23;21.73;;;16.07;;
14316;SDS011;7242;50.858;6.586;2022-11-14T16:28:44;22.40;;;16.33;;
14316;SDS011;7242;50.858;6.586;2022-11-14T16:32:04;19.63;;;15.50;;
14316;SDS011;7242;50.858;6.586;2022-11-14T16:35:24;20.77;;;16.17;;
14316;SDS011;7242;50.858;6.586;2022-11-14T16:38:44;19.20;;;16.13;;
14316;SDS011;7242;50.858;6.586;2022-11-14T16:42:04;20.43;;;15.90;;
14316;SDS011;7242;50.858;6.586;2022-11-14T16:45:25;19.50;;;15.80;;
14316;SDS011;7242;50.858;6.586;2022-11-14T16:48:45;20.57;;;16.80;;
14316;SDS011;7242;50.858;6.586;2022-11-14T16:52:04;19.73;;;15.63;;
14316;SDS011;7242;50.858;6.586;2022-11-14T16:55:26;16.07;;;14.03;;
14316;SDS011;7242;50.858;6.586;2022-11-14T16:58:45;16.57;;;14.03;;
14316;SDS011;7242;50.858;6.586;2022-11-14T17:02:05;15.80;;;13.20;;
14316;SDS011;7242;50.858;6.586;2022-11-14T17:05:24;14.90;;;12.73;;
14316;SDS011;7242;50.858;6.586;2022-11-14T17:08:44;13.03;;;10.87;;
14316;SDS011;7242;50.858;6.586;2022-11-14T17:12:04;11.17;;;9.73;;
14316;SDS011;7242;50.858;6.586;2022-11-14T17:15:24;10.50;;;8.03;;
14316;SDS011;7242;50.858;6.586;2022-11-14T17:18:48;6.83;;;6.13;;
14316;SDS011;7242;50.858;6.586;2022-11-14T17:22:08;6.80;;;6.10;;
14316;SDS011;7242;50.858;6.586;2022-11-14T17:25:28;6.70;;;6.10;;
14316;SDS011;7242;50.858;6.586;2022-11-14T17:28:49;6.77;;;6.00;;
14316;SDS011;7242;50.858;6.586;2022-11-14T17:32:08;7.00;;;5.43;;
14316;SDS011;7242;50.858;6.586;2022-11-14T17:35:28;6.57;;;5.53;;
14316;SDS011;7242;50.858;6.586;2022-11-14T17:38:47;6.53;;;5.90;;
14316;SDS011;7242;50.858;6.586;2022-11-14T17:42:07;6.60;;;5.77;;
14316;SDS011;7242;50.858;6.586;2022-11-14T17:45:27;6.50;;;5.77;;
14316;SDS011;7242;50.858;6.586;2022-11-14T17:48:47;9.03;;;7.40;;
14316;SDS011;7242;50.858;6.586;2022-11-14T17:52:06;9.27;;;7.77;;
14316;SDS011;7242;50.858;6.586;2022-11-14T17:55:26;8.47;;;7.57;;
14316;SDS011;7242;50.858;6.586;2022-11-14T17:58:46;8.97;;;7.97;;
14316;SDS011;7242;50.858;6.586;2022-11-14T18:02:10;9.63;;;7.90;;
14316;SDS011;7242;50.858;6.586;2022-11-14T18:05:31;8.17;;;7.33;;
14316;SDS011;7242;50.858;6.586;2022-11-14T18:08:51;8.00;;;7.20;;
14316;SDS011;7242;50.858;6.586;2022-11-14T18:12:11;9.43;;;7.30;;
14316;SDS011;7242;50.858;6.586;2022-11-14T18:15:31;8.70;;;7.60;;
14316;SDS011;7242;50.858;6.586;2022-11-14T18:18:50;8.00;;;7.20;;
14316;SDS011;7242;50.858;6.586;2022-11-14T18:22:10;10.40;;;8.27;;
14316;SDS011;7242;50.858;6.586;2022-11-14T18:25:29;12.63;;;9.50;;
14316;SDS011;7242;50.858;6.586;2022-11-14T18:28:52;13.30;;;9.40;;
14316;SDS011;7242;50.858;6.586;2022-11-14T18:32:12;9.60;;;8.17;;
14316;SDS011;7242;50.858;6.586;2022-11-14T18:35:33;9.33;;;8.17;;
14316;SDS011;7242;50.858;6.586;2022-11-14T18:38:54;9.50;;;8.50;;
14316;SDS011;7242;50.858;6.586;2022-11-14T18:42:13;9.60;;;8.07;;
14316;SDS011;7242;50.858;6.586;2022-11-14T18:45:33;10.37;;;8.53;;
14316;SDS011;7242;50.858;6.586;2022-11-14T18:48:54;9.87;;;8.00;;
14316;SDS011;7242;50.858;6.586;2022-11-14T18:52:14;10.10;;;9.10;;
14316;SDS011;7242;50.858;6.586;2022-11-14T18:55:40;10.57;;;9.33;;
14316;SDS011;7242;50.858;6.586;2022-11-14T18:59:00;11.43;;;9.77;;
14316;SDS011;7242;50.858;6.586;2022-11-14T19:02:20;12.77;;;8.60;;
14316;SDS011;7242;50.858;6.586;2022-11-14T19:05:39;10.47;;;9.03;;
14316;SDS011;7242;50.858;6.586;2022-11-14T19:09:00;11.47;;;10.27;;
14316;SDS011;7242;50.858;6.586;2022-11-14T19:12:20;11.93;;;9.83;;
14316;SDS011;7242;50.858;6.586;2022-11-14T19:15:41;11.27;;;9.63;;
14316;SDS011;7242;50.858;6.586;2022-11-14T19:19:01;12.53;;;10.70;;
14316;SDS011;7242;50.858;6.586;2022-11-14T19:22:20;10.73;;;9.20;;
14316;SDS011;7242;50.858;6.586;2022-11-14T19:25:40;10.87;;;8.93;;
14316;SDS011;7242;50.858;6.586;2022-11-14T19:29:03;11.27;;;9.57;;
14316;SDS011;7242;50.858;6.586;2022-11-14T19:32:27;10.93;;;9.10;;
14316;SDS011;7242;50.858;6.586;2022-11-14T19:35:46;10.93;;;9.43;;
14316;SDS011;7242;50.858;6.586;2022-11-14T19:39:06;12.90;;;10.97;;
14316;SDS011;7242;50.858;6.586;2022-11-14T19:42:25;12.37;;;11.00;;
14316;SDS011;7242;50.858;6.586;2022-11-14T19:45:45;13.83;;;11.27;;
14316;SDS011;7242;50.858;6.586;2022-11-14T19:49:05;12.63;;;11.27;;
14316;SDS011;7242;50.858;6.586;2022-11-14T19:52:25;14.27;;;11.40;;
14316;SDS011;7242;50.858;6.586;2022-11-14T19:55:45;12.83;;;11.07;;
14316;SDS011;7242;50.858;6.586;2022-11-14T19:59:04;12.10;;;10.50;;
14316;SDS011;7242;50.858;6.586;2022-11-14T20:02:25;12.43;;;11.07;;
14316;SDS011;7242;50.858;6.586;2022-11-14T20:05:47;12.00;;;10.63;;
14316;SDS011;7242;50.858;6.586;2022-11-14T20:09:07;12.20;;;10.40;;
14316;SDS011;7242;50.858;6.586;2022-11-14T20:12:27;12.07;;;9.87;;
14316;SDS011;7242;50.858;6.586;2022-11-14T20:15:47;11.90;;;10.70;;
14316;SDS011;7242;50.858;6.586;2022-11-14T20:19:07;13.27;;;11.30;;
14316;SDS011;7242;50.858;6.586;2022-11-14T20:22:26;13.50;;;11.00;;
14316;SDS011;7242;50.858;6.586;2022-11-14T20:25:50;13.63;;;11.53;;
14316;SDS011;7242;50.858;6.586;2022-11-14T20:29:13;12.57;;;11.00;;
14316;SDS011;7242;50.858;6.586;2022-11-14T20:32:32;13.13;;;11.47;;
14316;SDS011;7242;50.858;6.586;2022-11-14T20:35:52;16.07;;;11.87;;
14316;SDS011;7242;50.858;6.586;2022-11-14T20:39:12;13.90;;;12.47;;
14316;SDS011;7242;50.858;6.586;2022-11-14T20:42:31;15.40;;;12.47;;
14316;SDS011;7242;50.858;6.586;2022-11-14T20:45:55;14.37;;;12.37;;
14316;SDS011;7242;50.858;6.586;2022-11-14T20:49:15;14.17;;;12.07;;
14316;SDS011;7242;50.858;6.586;2022-11-14T20:52:34;13.57;;;11.40;;
14316;SDS011;7242;50.858;6.586;2022-11-14T20:55:56;14.57;;;12.00;;
14316;SDS011;7242;50.858;6.586;2022-11-14T20:59:15;17.30;;;12.13;;
14316;SDS011;7242;50.858;6.586;2022-11-14T21:02:35;14.83;;;11.43;;
14316;SDS011;7242;50.858;6.586;2022-11-14T21:05:55;13.97;;;12.13;;
14316;SDS011;7242;50.858;6.586;2022-11-14T21:09:16;14.20;;;12.23;;
14316;SDS011;7242;50.858;6.586;2022-11-14T21:12:35;14.00;;;12.03;;
14316;SDS011;7242;50.858;6.586;2022-11-14T21:15:55;14.57;;;11.93;;
14316;SDS011;7242;50.858;6.586;2022-11-14T21:19:15;12.50;;;11.20;;
14316;SDS011;7242;50.858;6.586;2022-11-14T21:22:35;12.67;;;11.17;;
14316;SDS011;7242;50.858;6.586;2022-11-14T21:26:02;12.43;;;10.80;;
14316;SDS011;7242;50.858;6.586;2022-11-14T21:29:22;13.50;;;11.10;;
14316;SDS011;7242;50.858;6.586;2022-11-14T21:32:42;12.17;;;10.80;;
14316;SDS011;7242;50.858;6.586;2022-11-14T21:36:03;13.23;;;11.20;;
14316;SDS011;7242;50.858;6.586;2022-11-14T21:39:23;12.27;;;10.97;;
14316;SDS011;7242;50.858;6.586;2022-11-14T21:42:43;13.20;;;11.60;;
14316;SDS011;7242;50.858;6.586;2022-11-14T21:46:04;12.50;;;10.90;;
14316;SDS011;7242;50.858;6.586;2022-11-14T21:49:25;11.63;;;10.43;;
14316;SDS011;7242;50.858;6.586;2022-11-14T21:52:45;13.00;;;10.93;;
14316;SDS011;7242;50.858;6.586;2022-11-14T21:56:21;11.93;;;10.33;;
14316;SDS011;7242;50.858;6.586;2022-11-14T21:59:41;11.93;;;10.40;;
14316;SDS011;7242;50.858;6.586;2022-11-14T22:03:01;11.17;;;9.83;;
14316;SDS011;7242;50.858;6.586;2022-11-14T22:06:40;12.03;;;10.83;;
14316;SDS011;7242;50.858;6.586;2022-11-14T22:10:00;12.17;;;10.37;;
14316;SDS011;7242;50.858;6.586;2022-11-14T22:13:19;12.53;;;10.47;;
14316;SDS011;7242;50.858;6.586;2022-11-14T22:16:39;12.07;;;10.27;;
14316;SDS011;7242;50.858;6.586;2022-11-14T22:19:58;11.97;;;10.67;;
14316;SDS011;7242;50.858;6.586;2022-11-14T22:23:18;12.50;;;10.60;;
14316;SDS011;7242;50.858;6.586;2022-11-14T22:26:38;11.40;;;10.23;;